Time,TemperatureF,DewpointF,PressureIn,WindDirection,WindDirectionDegrees,WindSpeedMPH,WindSpeedGustMPH,Humidity,HourlyPrecipIn,Conditions,Clouds,dailyrainin,SoftwareType,DateUTC
2013-04-16 00:02:00,16.1,12.4,30.17,ESE,111,5.8,5.8,85,0.00,RA,,0.00,WeatherDisplay:10.37,2013-04-16 06:02:00,
2013-04-16 00:07:00,15.9,12.2,30.17,East,80,4.6,4.6,85,0.00,RA,,0.00,WeatherDisplay:10.37,2013-04-16 06:07:00,
2013-04-16 00:12:00,15.9,12.2,30.17,ENE,57,8.1,8.1,85,0.00,CLR,,0.00,WeatherDisplay:10.37,2013-04-16 06:12:00,
2013-04-16 00:17:00,15.9,12.2,30.13,NE,55,5.8,5.8,85,0.00,CLR,,0.00,WeatherDisplay:10.37,2013-04-16 06:17:00,
2013-04-16 00:22:00,15.9,12.2,30.13,ENE,59,5.8,5.8,85,0.00,CLR,,0.00,WeatherDisplay:10.37,2013-04-16 06:22:00,
2013-04-16 00:27:00,15.9,12.2,30.13,NE,56,3.5,3.5,85,0.00,CLR,,0.00,WeatherDisplay:10.37,2013-04-16 06:27:00,
2013-04-16 00:32:00,15.9,12.2,30.15,NE,43,6.0,6.0,85,0.00,CLR,,0.00,WeatherDisplay:10.37,2013-04-16 06:32:00,
2013-04-16 00:37:00,16.1,12.4,30.15,ENE,76,8.1,8.1,85,0.00,CLR,,0.00,WeatherDisplay:10.37,2013-04-16 06:37:00,
2013-04-16 00:42:00,16.1,12.4,30.15,ENE,73,5.8,5.8,85,0.00,CLR,,0.00,WeatherDisplay:10.37,2013-04-16 06:42:00,
2013-04-16 00:47:00,16.1,12.4,30.13,ENE,74,6.0,6.0,85,0.00,CLR,,0.00,WeatherDisplay:10.37,2013-04-16 06:47:00,
2013-04-16 00:52:00,16.1,12.4,30.13,NE,45,10.4,10.4,85,0.00,CLR,,0.00,WeatherDisplay:10.37,2013-04-16 06:52:00,
2013-04-16 00:57:00,16.1,12.4,30.13,ENE,76,11.5,11.5,85,0.00,CLR,,0.00,WeatherDisplay:10.37,2013-04-16 06:57:00,
2013-04-16 01:02:00,16.1,12.4,30.13,East,88,8.1,8.1,85,0.00,CLR,,0.00,WeatherDisplay:10.37,2013-04-16 07:02:00,
2013-04-16 01:07:00,15.9,11.9,30.13,East,83,5.8,5.8,84,0.00,CLR,,0.00,WeatherDisplay:10.37,2013-04-16 07:07:00,
2013-04-16 01:12:00,15.9,11.9,30.13,ENE,76,6.9,6.9,84,0.00,CLR,,0.00,WeatherDisplay:10.37,2013-04-16 07:12:00,
2013-04-16 01:17:00,15.7,11.7,30.13,ENE,59,5.8,5.8,84,0.00,CLR,,0.00,WeatherDisplay:10.37,2013-04-16 07:17:00,
2013-04-16 01:22:00,15.7,11.7,30.13,East,96,6.0,6.0,84,0.00,CLR,,0.00,WeatherDisplay:10.37,2013-04-16 07:22:00,
2013-04-16 01:27:00,15.7,11.7,30.13,ENE,69,8.1,8.1,84,0.00,CLR,,0.00,WeatherDisplay:10.37,2013-04-16 07:27:00,
2013-04-16 01:32:00,15.7,12.0,30.13,NE,45,6.9,6.9,85,0.00,CLR,,0.00,WeatherDisplay:10.37,2013-04-16 07:32:00,
2013-04-16 01:37:00,15.7,12.0,30.13,NNE,19,5.8,5.8,85,0.00,CLR,,0.00,WeatherDisplay:10.37,2013-04-16 07:37:00,
2013-04-16 01:42:00,15.7,12.0,30.13,NE,56,10.0,10.0,85,0.00,CLR,,0.00,WeatherDisplay:10.37,2013-04-16 07:42:00,
2013-04-16 01:47:00,15.9,12.2,30.13,NNE,24,8.1,8.1,85,0.00,CLR,,0.00,WeatherDisplay:10.37,2013-04-16 07:47:00,
2013-04-16 01:52:00,16.1,12.4,30.13,NE,49,8.1,8.1,85,0.00,CLR,,0.00,WeatherDisplay:10.37,2013-04-16 07:52:00,
2013-04-16 01:57:00,16.1,12.1,30.13,NNE,29,11.5,11.5,84,0.00,CLR,,0.00,WeatherDisplay:10.37,2013-04-16 07:57:00,
2013-04-16 02:02:00,15.9,11.9,30.13,NNE,22,11.5,11.5,84,0.00,CLR,,0.00,WeatherDisplay:10.37,2013-04-16 08:02:00,
2013-04-16 02:07:00,16.1,12.1,30.13,NE,42,8.0,8.0,84,0.00,CLR,,0.00,WeatherDisplay:10.37,2013-04-16 08:07:00,
2013-04-16 02:12:00,15.9,11.9,30.13,NE,55,10.0,10.0,84,0.00,CLR,,0.00,WeatherDisplay:10.37,2013-04-16 08:12:00,
2013-04-16 02:17:00,15.9,11.9,30.11,ENE,70,5.8,5.8,84,0.00,CLR,,0.00,WeatherDisplay:10.37,2013-04-16 08:17:00,
2013-04-16 02:22:00,15.9,11.9,30.11,ENE,70,8.1,8.1,84,0.00,CLR,,0.00,WeatherDisplay:10.37,2013-04-16 08:22:00,
2013-04-16 02:27:00,15.9,11.9,30.11,NE,40,6.9,6.9,84,0.00,CLR,,0.00,WeatherDisplay:10.37,2013-04-16 08:27:00,
2013-04-16 02:32:00,15.9,11.9,30.10,ENE,69,5.0,5.0,84,0.00,CLR,,0.00,WeatherDisplay:10.37,2013-04-16 08:32:00,
2013-04-16 02:37:00,15.9,11.9,30.10,ENE,70,6.9,6.9,84,0.00,CLR,,0.00,WeatherDisplay:10.37,2013-04-16 08:37:00,
2013-04-16 02:42:00,16.1,12.1,30.10,ENE,72,5.8,5.8,84,0.00,CLR,,0.00,WeatherDisplay:10.37,2013-04-16 08:42:00,
2013-04-16 02:47:00,16.1,12.1,30.09,East,79,6.9,6.9,84,0.00,CLR,,0.00,WeatherDisplay:10.37,2013-04-16 08:47:00,
2013-04-16 02:52:00,16.2,12.2,30.09,ENE,73,6.9,6.9,84,0.00,CLR,,0.00,WeatherDisplay:10.37,2013-04-16 08:52:00,
2013-04-16 02:57:00,16.4,12.7,30.09,NE,40,6.9,6.9,85,0.00,CLR,,0.00,WeatherDisplay:10.37,2013-04-16 08:57:00,
2013-04-16 03:02:00,16.7,13.0,30.09,East,84,8.1,8.1,85,0.00,CLR,,0.00,WeatherDisplay:10.37,2013-04-16 09:02:00,
2013-04-16 03:07:00,16.9,13.2,30.09,ENE,57,8.1,8.1,85,0.00,CLR,,0.00,WeatherDisplay:10.37,2013-04-16 09:07:00,
2013-04-16 03:12:00,17.0,13.3,30.09,East,79,6.9,6.9,85,0.00,CLR,,0.00,WeatherDisplay:10.37,2013-04-16 09:12:00,
2013-04-16 03:17:00,17.3,13.6,30.07,ENE,64,8.1,8.1,85,0.00,CLR,,0.00,WeatherDisplay:10.37,2013-04-16 09:17:00,
2013-04-16 03:22:00,17.7,14.0,30.07,East,94,5.8,5.8,85,0.00,CLR,,0.00,WeatherDisplay:10.37,2013-04-16 09:22:00,
2013-04-16 03:27:00,17.8,14.1,30.07,ENE,76,5.8,5.8,85,0.00,CLR,,0.00,WeatherDisplay:10.37,2013-04-16 09:27:00,
2013-04-16 03:32:00,17.8,14.1,30.05,East,88,8.1,8.1,85,0.00,CLR,,0.00,WeatherDisplay:10.37,2013-04-16 09:32:00,
2013-04-16 03:37:00,18.0,14.3,30.05,East,91,6.9,6.9,85,0.00,CLR,,0.00,WeatherDisplay:10.37,2013-04-16 09:37:00,
2013-04-16 03:42:00,18.1,14.4,30.05,ENE,67,6.9,6.9,85,0.00,CLR,,0.00,WeatherDisplay:10.37,2013-04-16 09:42:00,
2013-04-16 03:47:00,18.1,14.4,30.04,East,88,5.8,5.8,85,0.00,CLR,,0.00,WeatherDisplay:10.37,2013-04-16 09:47:00,
2013-04-16 03:52:00,18.3,14.5,30.04,East,100,3.5,3.5,85,0.00,CLR,,0.00,WeatherDisplay:10.37,2013-04-16 09:52:00,
2013-04-16 03:57:00,18.3,14.5,30.04,ESE,107,4.6,4.6,85,0.00,CLR,,0.00,WeatherDisplay:10.37,2013-04-16 09:57:00,
2013-04-16 04:02:00,18.3,14.5,30.04,ESE,104,5.8,5.8,85,0.00,CLR,,0.00,WeatherDisplay:10.37,2013-04-16 10:02:00,
2013-04-16 04:07:00,18.3,14.5,30.04,ESE,115,3.0,3.0,85,0.00,CLR,,0.00,WeatherDisplay:10.37,2013-04-16 10:07:00,
2013-04-16 04:12:00,18.3,14.5,30.04,ESE,120,3.5,3.5,85,0.00,CLR,,0.00,WeatherDisplay:10.37,2013-04-16 10:12:00,
2013-04-16 04:17:00,18.3,14.5,30.06,East,98,5.8,5.8,85,0.00,CLR,,0.00,WeatherDisplay:10.37,2013-04-16 10:17:00,
2013-04-16 04:22:00,18.3,14.5,30.06,ESE,107,6.9,6.9,85,0.00,CLR,,0.00,WeatherDisplay:10.37,2013-04-16 10:22:00,
2013-04-16 04:27:00,18.3,14.5,30.06,East,97,5.8,5.8,85,0.00,CLR,,0.00,WeatherDisplay:10.37,2013-04-16 10:27:00,
2013-04-16 04:32:00,18.1,14.4,30.06,ESE,107,4.6,4.6,85,0.00,CLR,,0.00,WeatherDisplay:10.37,2013-04-16 10:32:00,
2013-04-16 04:37:00,18.1,14.4,30.06,ESE,110,5.8,5.8,85,0.00,CLR,,0.00,WeatherDisplay:10.37,2013-04-16 10:37:00,
2013-04-16 04:42:00,18.1,14.4,30.06,East,98,5.8,5.8,85,0.00,CLR,,0.00,WeatherDisplay:10.37,2013-04-16 10:42:00,
2013-04-16 04:47:00,18.0,14.3,30.05,East,100,3.5,3.5,85,0.00,CLR,,0.00,WeatherDisplay:10.37,2013-04-16 10:47:00,
2013-04-16 04:52:00,18.0,14.3,30.05,ESE,110,3.5,3.5,85,0.00,CLR,,0.00,WeatherDisplay:10.37,2013-04-16 10:52:00,
2013-04-16 04:57:00,18.0,14.3,30.05,ESE,111,5.0,5.0,85,0.00,CLR,,0.00,WeatherDisplay:10.37,2013-04-16 10:57:00,
2013-04-16 05:02:00,18.0,14.5,30.04,ESE,118,4.6,4.6,86,0.00,CLR,,0.00,WeatherDisplay:10.37,2013-04-16 11:02:00,
2013-04-16 05:07:00,18.0,14.5,30.04,ESE,120,5.8,5.8,86,0.00,CLR,,0.00,WeatherDisplay:10.37,2013-04-16 11:07:00,
2013-04-16 05:12:00,18.0,14.5,30.04,ESE,121,2.3,2.3,86,0.00,CLR,,0.00,WeatherDisplay:10.37,2013-04-16 11:12:00,
2013-04-16 05:17:00,18.0,14.5,30.05,ESE,107,3.5,3.5,86,0.00,CLR,,0.00,WeatherDisplay:10.37,2013-04-16 11:17:00,
2013-04-16 05:22:00,18.0,14.5,30.05,ESE,121,2.3,2.3,86,0.00,CLR,,0.00,WeatherDisplay:10.37,2013-04-16 11:22:00,
2013-04-16 05:27:00,18.0,14.5,30.05,SE,128,3.5,3.5,86,0.00,CLR,,0.00,WeatherDisplay:10.37,2013-04-16 11:27:00,
2013-04-16 05:32:00,17.8,14.3,30.05,SE,128,3.5,3.5,86,0.00,CLR,,0.00,WeatherDisplay:10.37,2013-04-16 11:32:00,
2013-04-16 05:37:00,17.8,14.3,30.05,SE,125,2.3,2.3,86,0.00,CLR,,0.00,WeatherDisplay:10.37,2013-04-16 11:37:00,
2013-04-16 05:42:00,17.8,14.3,30.05,SE,125,2.3,2.3,86,0.00,CLR,,0.00,WeatherDisplay:10.37,2013-04-16 11:42:00,
2013-04-16 05:47:00,17.8,14.3,30.05,SE,125,3.5,3.5,86,0.00,CLR,,0.00,WeatherDisplay:10.37,2013-04-16 11:47:00,
2013-04-16 05:52:00,17.8,14.3,30.05,ESE,120,3.5,3.5,86,0.00,CLR,,0.00,WeatherDisplay:10.37,2013-04-16 11:52:00,
2013-04-16 05:57:00,17.8,14.3,30.05,ESE,120,2.3,2.3,86,0.00,CLR,,0.00,WeatherDisplay:10.37,2013-04-16 11:57:00,
2013-04-16 06:02:00,17.8,14.3,30.05,ESE,118,2.3,2.3,86,0.00,CLR,,0.00,WeatherDisplay:10.37,2013-04-16 12:02:00,
2013-04-16 06:07:00,18.0,14.5,30.05,SE,128,2.3,2.3,86,0.00,CLR,,0.00,WeatherDisplay:10.37,2013-04-16 12:07:00,
2013-04-16 06:12:00,18.0,14.5,30.05,ESE,117,1.2,1.2,86,0.00,CLR,,0.00,WeatherDisplay:10.37,2013-04-16 12:12:00,
2013-04-16 06:17:00,18.0,14.5,30.05,ESE,117,0.0,0.0,86,0.00,CLR,,0.00,WeatherDisplay:10.37,2013-04-16 12:17:00,
2013-04-16 06:22:00,18.0,14.5,30.05,ESE,117,1.2,1.2,86,0.00,CLR,,0.00,WeatherDisplay:10.37,2013-04-16 12:22:00,
2013-04-16 06:27:00,18.0,14.5,30.05,ESE,117,2.0,2.0,86,0.00,CLR,,0.00,WeatherDisplay:10.37,2013-04-16 12:27:00,
2013-04-16 06:32:00,18.0,14.5,30.05,ESE,117,2.3,2.3,86,0.00,CLR,,0.00,WeatherDisplay:10.37,2013-04-16 12:32:00,
2013-04-16 06:37:00,18.0,14.5,30.05,ESE,117,1.2,0.0,86,0.00,CLR,,0.00,WeatherDisplay:10.37,2013-04-16 12:37:00,
2013-04-16 06:42:00,18.0,14.5,30.05,ESE,117,2.3,2.3,86,0.00,CLR,,0.00,WeatherDisplay:10.37,2013-04-16 12:42:00,
2013-04-16 06:47:00,18.0,14.5,30.05,ESE,117,0.0,0.1,86,0.00,CLR,,0.00,WeatherDisplay:10.37,2013-04-16 12:47:00,
2013-04-16 06:52:00,18.1,14.6,30.05,ESE,117,1.2,0.0,86,0.00,CLR,,0.00,WeatherDisplay:10.37,2013-04-16 12:52:00,
2013-04-16 06:57:00,18.1,14.6,30.05,ESE,117,0.0,0.0,86,0.00,CLR,,0.00,WeatherDisplay:10.37,2013-04-16 12:57:00,
2013-04-16 07:02:00,18.1,14.6,30.05,ESE,117,0.0,0.0,86,0.00,CLR,,0.00,WeatherDisplay:10.37,2013-04-16 13:02:00,
2013-04-16 07:07:00,18.3,14.8,30.05,ESE,117,0.0,0.0,86,0.00,CLR,,0.00,WeatherDisplay:10.37,2013-04-16 13:07:00,
2013-04-16 07:12:00,18.4,14.9,30.05,ESE,117,0.0,0.0,86,0.00,CLR,,0.00,WeatherDisplay:10.37,2013-04-16 13:12:00,
2013-04-16 07:17:00,18.4,14.9,30.05,ESE,117,0.0,0.0,86,0.00,CLR,,0.00,WeatherDisplay:10.37,2013-04-16 13:17:00,
2013-04-16 07:22:00,18.6,15.1,30.05,ESE,117,0.0,0.0,86,0.00,CLR,,0.00,WeatherDisplay:10.37,2013-04-16 13:22:00,
2013-04-16 07:27:00,18.6,15.1,30.05,ESE,117,0.0,0.0,86,0.00,CLR,,0.00,WeatherDisplay:10.37,2013-04-16 13:27:00,
2013-04-16 07:32:00,18.8,15.3,30.05,ESE,117,0.0,0.0,86,0.00,CLR,,0.00,WeatherDisplay:10.37,2013-04-16 13:32:00,
2013-04-16 07:37:00,18.9,15.4,30.05,ESE,117,0.0,0.0,86,0.00,CLR,,0.00,WeatherDisplay:10.37,2013-04-16 13:37:00,
2013-04-16 07:42:00,19.1,15.6,30.05,ESE,117,0.0,0.0,86,0.00,CLR,,0.00,WeatherDisplay:10.37,2013-04-16 13:42:00,
2013-04-16 07:47:00,19.1,15.6,30.05,ESE,117,1.2,1.2,86,0.00,CLR,,0.00,WeatherDisplay:10.37,2013-04-16 13:47:00,
2013-04-16 07:52:00,19.2,15.7,30.05,ESE,117,0.0,0.0,86,0.00,CLR,,0.00,WeatherDisplay:10.37,2013-04-16 13:52:00,
2013-04-16 07:57:00,19.4,15.9,30.05,ESE,117,0.0,0.0,86,0.00,CLR,,0.00,WeatherDisplay:10.37,2013-04-16 13:57:00,
2013-04-16 08:02:00,19.7,16.2,30.03,ESE,117,0.0,0.0,86,0.00,CLR,,0.00,WeatherDisplay:10.37,2013-04-16 14:02:00,
2013-04-16 08:07:00,19.9,16.4,30.03,ESE,117,0.0,0.0,86,0.00,CLR,,0.00,WeatherDisplay:10.37,2013-04-16 14:07:00,
2013-04-16 08:12:00,20.0,16.5,30.03,SW,216,1.2,0.0,86,0.00,CLR,,0.00,WeatherDisplay:10.37,2013-04-16 14:12:00,
2013-04-16 08:17:00,20.2,16.7,30.08,NNE,31,2.0,2.0,86,0.00,CLR,,0.00,WeatherDisplay:10.37,2013-04-16 14:17:00,
2013-04-16 08:22:00,20.2,16.7,30.08,NNE,31,0.0,0.0,86,0.00,CLR,,0.00,WeatherDisplay:10.37,2013-04-16 14:22:00,
2013-04-16 08:27:00,20.5,17.0,30.08,NNE,31,0.0,0.0,86,0.00,CLR,,0.00,WeatherDisplay:10.37,2013-04-16 14:27:00,
2013-04-16 08:32:00,20.6,17.1,30.07,NNE,31,0.0,0.0,86,0.00,CLR,,0.00,WeatherDisplay:10.37,2013-04-16 14:32:00,
2013-04-16 08:37:00,21.0,17.5,30.07,NNE,31,0.0,0.0,86,0.00,CLR,,0.00,WeatherDisplay:10.37,2013-04-16 14:37:00,
2013-04-16 08:42:00,21.3,17.8,30.07,NE,45,2.3,2.3,86,0.00,CLR,,0.00,WeatherDisplay:10.37,2013-04-16 14:42:00,
2013-04-16 08:47:00,21.4,17.9,30.08,SSW,200,1.0,1.0,86,0.00,CLR,,0.00,WeatherDisplay:10.37,2013-04-16 14:47:00,
2013-04-16 08:52:00,21.6,18.1,30.08,SSW,200,0.0,0.0,86,0.00,CLR,,0.00,WeatherDisplay:10.37,2013-04-16 14:52:00,
2013-04-16 08:57:00,21.9,18.4,30.08,SSW,200,0.0,0.0,86,0.00,CLR,,0.00,WeatherDisplay:10.37,2013-04-16 14:57:00,
2013-04-16 09:02:00,21.9,18.4,30.06,SSW,200,0.0,0.0,86,0.00,CLR,,0.00,WeatherDisplay:10.37,2013-04-16 15:02:00,
2013-04-16 09:07:00,22.1,18.3,30.06,SSW,200,0.0,0.0,85,0.00,CLR,,0.00,WeatherDisplay:10.37,2013-04-16 15:07:00,
2013-04-16 09:12:00,22.2,18.4,30.06,SSW,200,1.2,1.2,85,0.00,CLR,,0.00,WeatherDisplay:10.37,2013-04-16 15:12:00,
2013-04-16 09:17:00,22.5,18.9,30.06,SSW,200,0.0,0.0,86,0.00,CLR,,0.00,WeatherDisplay:10.37,2013-04-16 15:17:00,
2013-04-16 09:22:00,23.0,19.4,30.06,SSW,200,0.0,0.0,86,0.00,CLR,,0.00,WeatherDisplay:10.37,2013-04-16 15:22:00,
2013-04-16 09:27:00,23.3,19.7,30.06,SSW,200,0.0,0.0,86,0.00,CLR,,0.00,WeatherDisplay:10.37,2013-04-16 15:27:00,
2013-04-16 09:32:00,23.6,20.0,30.04,SSW,200,1.2,1.2,86,0.00,CLR,,0.00,WeatherDisplay:10.37,2013-04-16 15:32:00,
2013-04-16 09:37:00,23.6,19.8,30.04,SSW,200,1.2,0.0,85,0.00,CLR,,0.00,WeatherDisplay:10.37,2013-04-16 15:37:00,
2013-04-16 09:42:00,23.5,19.7,30.04,SSW,200,1.2,1.2,85,0.00,CLR,,0.00,WeatherDisplay:10.37,2013-04-16 15:42:00,
2013-04-16 09:47:00,23.5,19.7,30.04,SSW,200,1.2,1.2,85,0.00,CLR,,0.00,WeatherDisplay:10.37,2013-04-16 15:47:00,
2013-04-16 09:52:00,23.5,19.9,30.04,SSW,200,1.2,1.2,86,0.00,CLR,,0.00,WeatherDisplay:10.37,2013-04-16 15:52:00,
2013-04-16 09:57:00,23.6,19.8,30.04,SSW,200,1.2,0.0,85,0.00,CLR,,0.00,WeatherDisplay:10.37,2013-04-16 15:57:00,
2013-04-16 10:02:00,23.6,19.8,30.03,SSW,201,1.0,0.0,85,0.00,CLR,,0.00,WeatherDisplay:10.37,2013-04-16 16:02:00,
2013-04-16 10:07:00,23.6,19.8,30.03,SSW,201,1.2,1.2,85,0.00,CLR,,0.00,WeatherDisplay:10.37,2013-04-16 16:07:00,
2013-04-16 10:12:00,23.8,19.9,30.03,SSW,201,3.5,3.5,85,0.00,CLR,,0.00,WeatherDisplay:10.37,2013-04-16 16:12:00,
2013-04-16 10:17:00,23.8,19.9,30.03,SSW,201,1.2,1.2,85,0.00,CLR,,0.00,WeatherDisplay:10.37,2013-04-16 16:17:00,
2013-04-16 10:22:00,23.9,20.0,30.03,SSW,201,1.2,0.0,85,0.00,CLR,,0.00,WeatherDisplay:10.37,2013-04-16 16:22:00,
2013-04-16 10:27:00,23.9,20.0,30.03,SSW,201,0.0,0.0,85,0.00,CLR,,0.00,WeatherDisplay:10.37,2013-04-16 16:27:00,
2013-04-16 10:32:00,24.4,20.5,30.02,SSW,201,0.0,0.0,85,0.00,CLR,,0.00,WeatherDisplay:10.37,2013-04-16 16:32:00,
2013-04-16 10:37:00,24.7,20.6,30.02,SSW,201,0.0,0.1,84,0.00,CLR,,0.00,WeatherDisplay:10.37,2013-04-16 16:37:00,
2013-04-16 10:42:00,25.0,21.1,30.02,SSW,201,0.0,0.0,85,0.01,RA,,0.01,WeatherDisplay:10.37,2013-04-16 16:42:00,
2013-04-16 10:47:00,25.1,21.2,30.00,SSW,201,1.2,1.2,85,0.01,RA,,0.01,WeatherDisplay:10.37,2013-04-16 16:47:00,
2013-04-16 10:52:00,25.3,21.1,30.00,SSW,201,2.3,0.0,84,0.01,,,0.01,WeatherDisplay:10.37,2013-04-16 16:52:00,
2013-04-16 10:57:00,25.3,21.1,30.00,SSW,201,2.3,2.3,84,0.01,CLR,,0.01,WeatherDisplay:10.37,2013-04-16 16:57:00,
2013-04-16 11:02:00,24.7,20.6,30.00,SE,128,2.0,2.0,84,0.01,CLR,,0.01,WeatherDisplay:10.37,2013-04-16 17:02:00,
2013-04-16 11:07:00,24.4,20.3,30.00,SE,128,2.3,2.3,84,0.01,CLR,,0.01,WeatherDisplay:10.37,2013-04-16 17:07:00,
2013-04-16 11:12:00,24.2,20.1,30.00,ESE,121,1.2,1.2,84,0.01,CLR,,0.01,WeatherDisplay:10.37,2013-04-16 17:12:00,
2013-04-16 11:17:00,24.2,20.1,30.02,ESE,118,2.3,2.3,84,0.01,CLR,,0.01,WeatherDisplay:10.37,2013-04-16 17:17:00,
2013-04-16 11:22:00,24.2,20.3,30.02,SE,128,1.2,1.2,85,0.01,CLR,,0.01,WeatherDisplay:10.37,2013-04-16 17:22:00,
2013-04-16 11:27:00,24.4,20.5,30.02,ESE,115,2.3,2.3,85,0.01,CLR,,0.01,WeatherDisplay:10.37,2013-04-16 17:27:00,
2013-04-16 11:32:00,24.4,20.5,30.01,ESE,122,2.3,2.3,85,0.01,CLR,,0.01,WeatherDisplay:10.37,2013-04-16 17:32:00,
2013-04-16 11:37:00,24.5,20.6,30.01,SE,124,2.3,2.3,85,0.01,CLR,,0.01,WeatherDisplay:10.37,2013-04-16 17:37:00,
2013-04-16 11:42:00,24.5,20.6,30.01,ESE,120,2.3,2.3,85,0.00,CLR,,0.01,WeatherDisplay:10.37,2013-04-16 17:42:00,
2013-04-16 11:47:00,24.7,20.8,30.01,SE,128,2.3,2.3,85,0.00,CLR,,0.02,WeatherDisplay:10.37,2013-04-16 17:47:00,
2013-04-16 11:52:00,25.0,21.1,30.01,SE,128,2.3,2.3,85,0.01,RA,,0.02,WeatherDisplay:10.37,2013-04-16 17:52:00,
2013-04-16 11:57:00,25.3,21.1,30.01,SE,128,2.3,2.3,84,0.01,RA,,0.02,WeatherDisplay:10.37,2013-04-16 17:57:00,
2013-04-16 12:02:00,25.4,21.2,30.00,SE,128,2.3,2.3,84,0.01,CLR,,0.02,WeatherDisplay:10.37,2013-04-16 18:02:00,
2013-04-16 12:07:00,25.4,21.2,30.00,SE,128,2.3,2.3,84,0.01,CLR,,0.02,WeatherDisplay:10.37,2013-04-16 18:07:00,
2013-04-16 12:12:00,25.7,21.5,30.00,SE,128,2.3,2.3,84,0.02,RA,,0.03,WeatherDisplay:10.37,2013-04-16 18:12:00,
2013-04-16 12:17:00,25.6,21.4,29.97,SE,124,2.3,2.3,84,0.02,RA,,0.03,WeatherDisplay:10.37,2013-04-16 18:17:00,
2013-04-16 12:22:00,25.6,21.4,29.97,ESE,121,2.3,2.3,84,0.02,,,0.03,WeatherDisplay:10.37,2013-04-16 18:22:00,
2013-04-16 12:27:00,25.4,21.2,29.97,ESE,121,2.3,2.3,84,0.02,CLR,,0.03,WeatherDisplay:10.37,2013-04-16 18:27:00,
2013-04-16 12:32:00,25.4,21.2,29.98,SE,128,1.2,1.2,84,0.03,RA,,0.04,WeatherDisplay:10.37,2013-04-16 18:32:00,
2013-04-16 12:37:00,25.4,21.2,29.98,ESE,121,2.3,2.3,84,0.03,RA,,0.04,WeatherDisplay:10.37,2013-04-16 18:37:00,
2013-04-16 12:42:00,25.3,21.1,29.98,ESE,118,2.3,2.3,84,0.03,CLR,,0.04,WeatherDisplay:10.37,2013-04-16 18:42:00,
2013-04-16 12:47:00,25.1,20.9,29.99,SE,124,2.3,2.3,84,0.03,CLR,,0.04,WeatherDisplay:10.37,2013-04-16 18:47:00,
2013-04-16 12:52:00,25.3,21.4,29.99,ESE,105,1.2,1.6,85,0.02,CLR,,0.04,WeatherDisplay:10.37,2013-04-16 18:52:00,
2013-04-16 12:57:00,25.4,21.5,29.99,SE,124,2.0,2.0,85,0.03,RA,,0.05,WeatherDisplay:10.37,2013-04-16 18:57:00,
2013-04-16 13:02:00,25.8,21.9,29.95,ENE,60,3.5,3.5,85,0.03,RA,,0.05,WeatherDisplay:10.37,2013-04-16 19:02:00,
2013-04-16 13:07:00,26.3,22.1,29.95,East,94,3.5,3.5,84,0.03,CLR,,0.05,WeatherDisplay:10.37,2013-04-16 19:07:00,
2013-04-16 13:12:00,26.4,22.5,29.95,East,87,2.3,2.3,85,0.02,CLR,,0.05,WeatherDisplay:10.37,2013-04-16 19:12:00,
2013-04-16 13:17:00,26.6,22.4,29.95,East,93,2.3,2.3,84,0.02,CLR,,0.05,WeatherDisplay:10.37,2013-04-16 19:17:00,
2013-04-16 13:22:00,26.4,22.2,29.95,NE,55,5.0,5.0,84,0.02,CLR,,0.05,WeatherDisplay:10.37,2013-04-16 19:22:00,
2013-04-16 13:27:00,26.1,21.6,29.95,ESE,111,2.3,2.3,83,0.02,CLR,,0.05,WeatherDisplay:10.37,2013-04-16 19:27:00,
2013-04-16 13:32:00,25.7,21.5,29.95,ESE,108,3.5,3.5,84,0.02,RA,,0.06,WeatherDisplay:10.37,2013-04-16 19:32:00,
2013-04-16 13:37:00,25.6,21.4,29.95,ESE,105,3.5,3.5,84,0.02,RA,,0.06,WeatherDisplay:10.37,2013-04-16 19:37:00,
2013-04-16 13:42:00,25.4,21.2,29.95,ESE,121,2.3,2.3,84,0.02,,,0.06,WeatherDisplay:10.37,2013-04-16 19:42:00,
2013-04-16 13:47:00,25.3,21.1,29.96,SE,124,2.3,2.3,84,0.02,CLR,,0.06,WeatherDisplay:10.37,2013-04-16 19:47:00,
2013-04-16 13:52:00,25.1,21.2,29.96,ESE,122,1.2,1.2,85,0.02,CLR,,0.06,WeatherDisplay:10.37,2013-04-16 19:52:00,
2013-04-16 13:57:00,25.0,20.8,29.96,ESE,121,2.3,2.3,84,0.01,CLR,,0.06,WeatherDisplay:10.37,2013-04-16 19:57:00,
2013-04-16 14:02:00,24.8,20.9,29.97,SE,124,2.3,2.3,85,0.01,CLR,,0.06,WeatherDisplay:10.37,2013-04-16 20:02:00,
2013-04-16 14:07:00,24.8,20.9,29.97,SE,124,2.3,2.3,85,0.01,CLR,,0.06,WeatherDisplay:10.37,2013-04-16 20:07:00,
2013-04-16 14:12:00,24.7,20.8,29.97,ESE,121,2.3,2.3,85,0.01,CLR,,0.06,WeatherDisplay:10.37,2013-04-16 20:12:00,
2013-04-16 14:17:00,24.7,20.8,29.96,ESE,115,3.5,3.5,85,0.01,CLR,,0.06,WeatherDisplay:10.37,2013-04-16 20:17:00,
2013-04-16 14:22:00,24.7,20.8,29.96,ESE,118,2.3,2.3,85,0.01,CLR,,0.06,WeatherDisplay:10.37,2013-04-16 20:22:00,
2013-04-16 14:27:00,24.5,20.6,29.96,ESE,118,3.5,3.5,85,0.01,CLR,,0.06,WeatherDisplay:10.37,2013-04-16 20:27:00,
2013-04-16 14:32:00,24.7,20.8,29.95,East,83,5.8,5.8,85,0.00,CLR,,0.06,WeatherDisplay:10.37,2013-04-16 20:32:00,
2013-04-16 14:37:00,25.0,21.4,29.95,NE,49,8.0,8.0,86,0.00,CLR,,0.06,WeatherDisplay:10.37,2013-04-16 20:37:00,
2013-04-16 14:42:00,25.3,21.4,29.95,ENE,67,6.0,6.0,85,0.00,CLR,,0.06,WeatherDisplay:10.37,2013-04-16 20:42:00,
2013-04-16 14:47:00,25.4,21.5,29.96,NNE,24,5.8,5.8,85,0.00,CLR,,0.06,WeatherDisplay:10.37,2013-04-16 20:47:00,
2013-04-16 14:52:00,25.6,21.7,29.96,NE,35,7.0,7.0,85,0.00,CLR,,0.06,WeatherDisplay:10.37,2013-04-16 20:52:00,
2013-04-16 14:57:00,25.4,21.5,29.96,ENE,64,4.6,4.6,85,0.00,CLR,,0.06,WeatherDisplay:10.37,2013-04-16 20:57:00,
2013-04-16 15:02:00,25.4,21.5,29.98,NNE,14,3.5,3.5,85,0.00,CLR,,0.06,WeatherDisplay:10.37,2013-04-16 21:02:00,
2013-04-16 15:07:00,25.4,21.5,29.98,East,83,5.8,5.8,85,0.00,CLR,,0.06,WeatherDisplay:10.37,2013-04-16 21:07:00,
2013-04-16 15:12:00,25.3,21.4,29.98,ENE,60,5.8,5.8,85,0.00,CLR,,0.06,WeatherDisplay:10.37,2013-04-16 21:12:00,
2013-04-16 15:17:00,25.3,21.4,29.97,ENE,73,8.1,8.1,85,0.00,CLR,,0.06,WeatherDisplay:10.37,2013-04-16 21:17:00,
2013-04-16 15:22:00,25.4,21.5,29.97,NNE,33,3.5,3.5,85,0.00,CLR,,0.06,WeatherDisplay:10.37,2013-04-16 21:22:00,
2013-04-16 15:27:00,25.6,21.7,29.97,ENE,59,8.1,8.1,85,0.00,CLR,,0.06,WeatherDisplay:10.37,2013-04-16 21:27:00,
2013-04-16 15:32:00,25.4,21.5,29.95,ENE,57,8.0,8.0,85,0.00,CLR,,0.06,WeatherDisplay:10.37,2013-04-16 21:32:00,
2013-04-16 15:37:00,25.3,21.4,29.95,ENE,64,7.0,7.0,85,0.00,CLR,,0.06,WeatherDisplay:10.37,2013-04-16 21:37:00,
2013-04-16 15:42:00,25.0,21.1,29.95,NE,53,10.4,10.4,85,0.00,CLR,,0.06,WeatherDisplay:10.37,2013-04-16 21:42:00,
2013-04-16 15:47:00,24.8,20.9,29.98,ENE,74,8.1,8.1,85,0.00,CLR,,0.06,WeatherDisplay:10.37,2013-04-16 21:47:00,
2013-04-16 15:52:00,24.5,20.6,29.98,ENE,59,8.1,8.1,85,0.00,CLR,,0.06,WeatherDisplay:10.37,2013-04-16 21:52:00,
2013-04-16 15:57:00,24.4,20.8,29.98,NE,39,6.9,6.9,86,0.00,CLR,,0.06,WeatherDisplay:10.37,2013-04-16 21:57:00,
2013-04-16 16:02:00,24.2,20.6,29.99,East,79,10.4,10.4,86,0.00,CLR,,0.06,WeatherDisplay:10.37,2013-04-16 22:02:00,
2013-04-16 16:07:00,24.1,20.5,29.99,NE,39,8.0,8.0,86,0.00,CLR,,0.06,WeatherDisplay:10.37,2013-04-16 22:07:00,
2013-04-16 16:12:00,24.2,20.6,29.99,NE,45,7.0,7.0,86,0.00,CLR,,0.06,WeatherDisplay:10.37,2013-04-16 22:12:00,
2013-04-16 16:17:00,24.2,20.6,29.98,NE,53,5.8,5.8,86,0.00,CLR,,0.06,WeatherDisplay:10.37,2013-04-16 22:17:00,
2013-04-16 16:22:00,24.4,20.8,29.98,North,354,5.0,5.0,86,0.00,CLR,,0.06,WeatherDisplay:10.37,2013-04-16 22:22:00,
2013-04-16 16:27:00,24.4,20.8,29.98,NNE,29,6.0,6.0,86,0.00,CLR,,0.06,WeatherDisplay:10.37,2013-04-16 22:27:00,
2013-04-16 16:32:00,24.5,20.9,29.98,NNE,25,6.9,6.9,86,0.00,CLR,,0.06,WeatherDisplay:10.37,2013-04-16 22:32:00,
2013-04-16 16:37:00,24.5,20.9,29.98,NNE,16,5.8,5.8,86,0.00,CLR,,0.06,WeatherDisplay:10.37,2013-04-16 22:37:00,
2013-04-16 16:42:00,24.7,21.1,29.98,ENE,63,6.9,6.9,86,0.00,CLR,,0.06,WeatherDisplay:10.37,2013-04-16 22:42:00,
2013-04-16 16:47:00,24.8,21.2,30.00,NNE,33,5.8,5.8,86,0.00,CLR,,0.06,WeatherDisplay:10.37,2013-04-16 22:47:00,
2013-04-16 16:52:00,25.0,21.4,30.00,NNE,26,6.9,6.9,86,0.00,CLR,,0.06,WeatherDisplay:10.37,2013-04-16 22:52:00,
2013-04-16 16:57:00,25.3,21.7,30.00,NNE,19,5.8,5.8,86,0.00,CLR,,0.06,WeatherDisplay:10.37,2013-04-16 22:57:00,
2013-04-16 17:02:00,25.4,21.8,30.00,NE,35,5.8,5.8,86,0.00,CLR,,0.06,WeatherDisplay:10.37,2013-04-16 23:02:00,
2013-04-16 17:07:00,25.6,22.0,30.00,NNE,21,5.8,5.8,86,0.00,CLR,,0.06,WeatherDisplay:10.37,2013-04-16 23:07:00,
2013-04-16 17:12:00,25.6,22.0,30.00,NNE,12,6.9,6.9,86,0.00,CLR,,0.06,WeatherDisplay:10.37,2013-04-16 23:12:00,
2013-04-16 17:17:00,25.6,22.0,30.00,North,351,6.9,6.9,86,0.00,CLR,,0.06,WeatherDisplay:10.37,2013-04-16 23:17:00,
2013-04-16 17:22:00,25.4,21.8,30.00,NNE,19,6.0,6.0,86,0.00,CLR,,0.06,WeatherDisplay:10.37,2013-04-16 23:22:00,
2013-04-16 17:27:00,25.3,21.7,30.00,North,8,4.6,4.6,86,0.00,CLR,,0.06,WeatherDisplay:10.37,2013-04-16 23:27:00,
2013-04-16 17:32:00,25.1,21.5,30.03,NNE,28,3.5,3.5,86,0.00,CLR,,0.06,WeatherDisplay:10.37,2013-04-16 23:32:00,
2013-04-16 17:37:00,25.1,21.5,30.03,ENE,60,3.5,3.5,86,0.00,CLR,,0.06,WeatherDisplay:10.37,2013-04-16 23:37:00,
2013-04-16 17:42:00,25.1,21.5,30.03,NNW,348,2.3,2.3,86,0.00,CLR,,0.06,WeatherDisplay:10.37,2013-04-16 23:42:00,
2013-04-16 17:47:00,25.1,21.5,30.02,NNW,348,0.0,0.0,86,0.00,CLR,,0.06,WeatherDisplay:10.37,2013-04-16 23:47:00,
2013-04-16 17:52:00,25.3,22.0,30.02,NNW,348,1.2,1.2,87,0.00,CLR,,0.06,WeatherDisplay:10.37,2013-04-16 23:52:00,
2013-04-16 17:57:00,25.6,22.3,30.02,NE,38,1.2,1.2,87,0.00,CLR,,0.06,WeatherDisplay:10.37,2013-04-16 23:57:00,
2013-04-16 18:02:00,25.4,21.8,30.00,ENE,70,4.6,4.6,86,0.00,CLR,,0.06,WeatherDisplay:10.37,2013-04-17 00:02:00,
2013-04-16 18:07:00,25.3,21.7,30.00,ENE,59,4.6,4.6,86,0.00,CLR,,0.06,WeatherDisplay:10.37,2013-04-17 00:07:00,
2013-04-16 18:12:00,25.1,21.8,30.00,ENE,57,2.3,2.3,87,0.00,CLR,,0.06,WeatherDisplay:10.37,2013-04-17 00:12:00,
2013-04-16 18:17:00,25.1,21.8,30.03,ENE,57,0.0,0.0,87,0.00,CLR,,0.06,WeatherDisplay:10.37,2013-04-17 00:17:00,
2013-04-16 18:22:00,25.1,21.8,30.03,NE,49,2.0,2.0,87,0.00,CLR,,0.06,WeatherDisplay:10.37,2013-04-17 00:22:00,
2013-04-16 18:27:00,25.0,21.7,30.03,North,11,2.3,2.3,87,0.00,CLR,,0.06,WeatherDisplay:10.37,2013-04-17 00:27:00,
2013-04-16 18:32:00,24.8,21.5,30.03,NE,53,3.5,3.5,87,0.00,CLR,,0.06,WeatherDisplay:10.37,2013-04-17 00:32:00,
2013-04-16 18:37:00,24.8,21.5,30.03,ENE,72,3.5,3.5,87,0.00,CLR,,0.06,WeatherDisplay:10.37,2013-04-17 00:37:00,
2013-04-16 18:42:00,24.5,21.2,30.03,East,87,2.3,2.3,87,0.00,CLR,,0.06,WeatherDisplay:10.37,2013-04-17 00:42:00,
2013-04-16 18:47:00,24.5,21.2,30.03,NNW,338,1.2,1.2,87,0.00,CLR,,0.06,WeatherDisplay:10.37,2013-04-17 00:47:00,
2013-04-16 18:52:00,24.5,21.2,30.03,ENE,63,4.6,4.6,87,0.00,CLR,,0.06,WeatherDisplay:10.37,2013-04-17 00:52:00,
2013-04-16 18:57:00,24.5,21.2,30.03,ENE,59,3.5,3.5,87,0.00,CLR,,0.06,WeatherDisplay:10.37,2013-04-17 00:57:00,
2013-04-16 19:02:00,24.5,21.2,30.04,ENE,70,3.5,3.5,87,0.00,CLR,,0.06,WeatherDisplay:10.37,2013-04-17 01:02:00,
2013-04-16 19:07:00,24.5,21.2,30.04,ENE,66,3.5,3.5,87,0.00,CLR,,0.06,WeatherDisplay:10.37,2013-04-17 01:07:00,
2013-04-16 19:12:00,24.5,21.2,30.04,NNE,25,4.6,4.6,87,0.00,CLR,,0.06,WeatherDisplay:10.37,2013-04-17 01:12:00,
2013-04-16 19:17:00,24.5,21.2,30.02,NE,42,3.5,3.5,87,0.00,CLR,,0.06,WeatherDisplay:10.37,2013-04-17 01:17:00,
2013-04-16 19:22:00,24.7,21.4,30.02,NE,48,3.5,3.5,87,0.00,CLR,,0.06,WeatherDisplay:10.37,2013-04-17 01:22:00,
2013-04-16 19:27:00,24.5,21.2,30.02,NNE,22,3.5,3.5,87,0.00,CLR,,0.06,WeatherDisplay:10.37,2013-04-17 01:27:00,
2013-04-16 19:32:00,24.5,21.2,30.02,North,2,1.2,0.0,87,0.00,CLR,,0.06,WeatherDisplay:10.37,2013-04-17 01:32:00,
2013-04-16 19:37:00,24.4,21.1,30.02,NNE,29,3.5,3.5,87,0.00,CLR,,0.06,WeatherDisplay:10.37,2013-04-17 01:37:00,
2013-04-16 19:42:00,24.4,21.1,30.02,NE,55,3.5,3.5,87,0.00,CLR,,0.06,WeatherDisplay:10.37,2013-04-17 01:42:00,
2013-04-16 19:47:00,24.2,21.2,30.03,North,2,5.8,5.8,88,0.00,CLR,,0.06,WeatherDisplay:10.37,2013-04-17 01:47:00,
2013-04-16 19:52:00,24.2,21.2,30.03,North,2,0.0,0.0,88,0.00,CLR,,0.06,WeatherDisplay:10.37,2013-04-17 01:52:00,
2013-04-16 19:57:00,24.2,21.2,30.03,North,2,0.0,0.0,88,0.00,CLR,,0.06,WeatherDisplay:10.37,2013-04-17 01:57:00,
2013-04-16 20:02:00,24.2,21.2,30.04,NE,53,2.3,2.3,88,0.00,CLR,,0.06,WeatherDisplay:10.37,2013-04-17 02:02:00,
2013-04-16 20:07:00,24.1,21.1,30.04,NE,53,2.3,2.3,88,0.00,CLR,,0.06,WeatherDisplay:10.37,2013-04-17 02:07:00,
2013-04-16 20:12:00,24.1,21.1,30.04,ENE,66,5.0,5.0,88,0.00,CLR,,0.06,WeatherDisplay:10.37,2013-04-17 02:12:00,
2013-04-16 20:17:00,24.1,21.1,30.03,ENE,60,3.5,3.5,88,0.00,CLR,,0.06,WeatherDisplay:10.37,2013-04-17 02:17:00,
2013-04-16 20:22:00,24.1,21.1,30.03,NE,55,5.0,5.0,88,0.00,CLR,,0.06,WeatherDisplay:10.37,2013-04-17 02:22:00,
2013-04-16 20:27:00,24.1,21.1,30.03,NNE,29,5.8,5.8,88,0.00,CLR,,0.06,WeatherDisplay:10.37,2013-04-17 02:27:00,
2013-04-16 20:32:00,23.9,20.9,30.03,North,1,6.0,6.0,88,0.00,CLR,,0.06,WeatherDisplay:10.37,2013-04-17 02:32:00,
2013-04-16 20:37:00,23.9,20.9,30.03,North,1,4.6,4.6,88,0.00,CLR,,0.06,WeatherDisplay:10.37,2013-04-17 02:37:00,
2013-04-16 20:42:00,23.9,20.9,30.03,NE,53,5.0,5.0,88,0.00,CLR,,0.06,WeatherDisplay:10.37,2013-04-17 02:42:00,
2013-04-16 20:47:00,23.9,20.9,30.03,North,354,5.0,5.0,88,0.00,CLR,,0.06,WeatherDisplay:10.37,2013-04-17 02:47:00,
2013-04-16 20:52:00,23.9,20.9,30.03,NE,49,3.5,3.5,88,0.00,CLR,,0.06,WeatherDisplay:10.37,2013-04-17 02:52:00,
2013-04-16 20:57:00,23.9,20.9,30.03,NE,49,0.0,0.0,88,0.00,CLR,,0.06,WeatherDisplay:10.37,2013-04-17 02:57:00,
2013-04-16 21:02:00,23.9,20.9,30.06,NE,49,5.0,5.0,88,0.00,CLR,,0.06,WeatherDisplay:10.37,2013-04-17 03:02:00,
2013-04-16 21:07:00,23.9,20.9,30.06,ENE,60,5.0,5.0,88,0.00,CLR,,0.06,WeatherDisplay:10.37,2013-04-17 03:07:00,
2013-04-16 21:12:00,23.8,20.8,30.06,NE,38,3.5,3.5,88,0.00,CLR,,0.06,WeatherDisplay:10.37,2013-04-17 03:12:00,
2013-04-16 21:17:00,23.9,20.9,30.03,NE,40,4.6,4.6,88,0.00,CLR,,0.06,WeatherDisplay:10.37,2013-04-17 03:17:00,
2013-04-16 21:22:00,23.9,20.9,30.03,NNE,25,4.6,4.6,88,0.00,CLR,,0.06,WeatherDisplay:10.37,2013-04-17 03:22:00,
2013-04-16 21:27:00,23.9,20.9,30.03,NNE,16,2.3,2.3,88,0.00,CLR,,0.06,WeatherDisplay:10.37,2013-04-17 03:27:00,
2013-04-16 21:32:00,23.9,20.9,30.05,NE,38,0.0,0.0,88,0.00,CLR,,0.06,WeatherDisplay:10.37,2013-04-17 03:32:00,
2013-04-16 21:37:00,23.8,20.8,30.05,East,91,4.6,4.6,88,0.00,CLR,,0.06,WeatherDisplay:10.37,2013-04-17 03:37:00,
2013-04-16 21:42:00,23.5,20.5,30.05,ENE,70,8.0,8.0,88,0.00,CLR,,0.06,WeatherDisplay:10.37,2013-04-17 03:42:00,
2013-04-16 21:47:00,23.2,19.9,30.06,East,79,4.6,4.6,87,0.00,CLR,,0.06,WeatherDisplay:10.37,2013-04-17 03:47:00,
2013-04-16 21:52:00,22.9,19.6,30.06,NE,55,8.1,8.1,87,0.00,CLR,,0.06,WeatherDisplay:10.37,2013-04-17 03:52:00,
2013-04-16 21:57:00,22.5,19.5,30.06,ENE,64,5.8,5.8,88,0.00,CLR,,0.06,WeatherDisplay:10.37,2013-04-17 03:57:00,
2013-04-16 22:00:00,22.5,19.5,30.07,East,87,5.0,5.0,88,0.00,CLR,,0.06,WeatherDisplay:10.37,2013-04-17 04:00:00,
2013-04-16 22:01:00,22.4,19.4,30.07,ENE,76,5.8,5.8,88,0.00,CLR,,0.06,WeatherDisplay:10.37,2013-04-17 04:01:00,
2013-04-16 22:03:00,22.4,19.4,30.07,ENE,64,6.9,6.9,88,0.00,CLR,,0.06,WeatherDisplay:10.37,2013-04-17 04:03:00,
2013-04-16 22:08:00,22.2,19.2,30.07,ENE,74,6.9,6.9,88,0.00,CLR,,0.06,WeatherDisplay:10.37,2013-04-17 04:08:00,
2013-04-16 22:13:00,22.1,19.1,30.07,ENE,62,7.0,7.0,88,0.00,CLR,,0.06,WeatherDisplay:10.37,2013-04-17 04:13:00,
2013-04-16 22:18:00,21.9,18.9,30.07,ENE,76,8.1,8.1,88,0.00,CLR,,0.06,WeatherDisplay:10.37,2013-04-17 04:18:00,
2013-04-16 22:23:00,21.8,18.8,30.07,ENE,64,6.9,6.9,88,0.00,CLR,,0.06,WeatherDisplay:10.37,2013-04-17 04:23:00,
2013-04-16 22:28:00,21.8,18.8,30.07,ENE,70,7.0,7.0,88,0.00,CLR,,0.06,WeatherDisplay:10.37,2013-04-17 04:28:00,
2013-04-16 22:33:00,21.6,18.6,30.06,ENE,76,8.1,8.1,88,0.00,CLR,,0.06,WeatherDisplay:10.37,2013-04-17 04:33:00,
2013-04-16 22:38:00,21.4,18.4,30.06,ENE,74,4.6,4.6,88,0.00,CLR,,0.06,WeatherDisplay:10.37,2013-04-17 04:38:00,
2013-04-16 22:43:00,21.4,18.4,30.06,East,84,5.8,5.8,88,0.00,CLR,,0.06,WeatherDisplay:10.37,2013-04-17 04:43:00,
2013-04-16 22:48:00,21.3,18.3,30.07,East,90,5.8,5.8,88,0.00,CLR,,0.06,WeatherDisplay:10.37,2013-04-17 04:48:00,
2013-04-16 22:53:00,21.3,18.3,30.07,East,83,5.0,5.0,88,0.00,CLR,,0.06,WeatherDisplay:10.37,2013-04-17 04:53:00,
2013-04-16 22:58:00,21.3,18.3,30.07,East,88,5.8,5.8,88,0.00,CLR,,0.06,WeatherDisplay:10.37,2013-04-17 04:58:00,
2013-04-16 23:03:00,21.1,18.1,30.07,ENE,74,5.8,5.8,88,0.00,CLR,,0.06,WeatherDisplay:10.37,2013-04-17 05:03:00,
2013-04-16 23:08:00,21.1,18.1,30.07,East,87,5.8,5.8,88,0.00,CLR,,0.06,WeatherDisplay:10.37,2013-04-17 05:08:00,
2013-04-16 23:13:00,21.0,18.0,30.07,East,84,4.6,4.6,88,0.00,CLR,,0.06,WeatherDisplay:10.37,2013-04-17 05:13:00,
2013-04-16 23:18:00,21.0,18.0,30.07,ENE,73,8.1,8.1,88,0.00,CLR,,0.06,WeatherDisplay:10.37,2013-04-17 05:18:00,
2013-04-16 23:23:00,21.0,18.0,30.07,East,87,6.9,6.9,88,0.00,CLR,,0.06,WeatherDisplay:10.37,2013-04-17 05:23:00,
2013-04-16 23:28:00,21.0,18.0,30.07,ENE,73,5.0,5.0,88,0.00,CLR,,0.06,WeatherDisplay:10.37,2013-04-17 05:28:00,
2013-04-16 23:33:00,20.8,17.8,30.06,ENE,63,6.9,6.9,88,0.00,CLR,,0.06,WeatherDisplay:10.37,2013-04-17 05:33:00,
2013-04-16 23:38:00,20.8,17.8,30.06,NE,55,6.0,6.0,88,0.00,CLR,,0.06,WeatherDisplay:10.37,2013-04-17 05:38:00,
2013-04-16 23:43:00,20.8,17.8,30.06,NE,45,6.9,6.9,88,0.00,CLR,,0.06,WeatherDisplay:10.37,2013-04-17 05:43:00,
2013-04-16 23:48:00,21.0,18.0,30.07,NNE,21,4.6,4.6,88,0.00,CLR,,0.06,WeatherDisplay:10.37,2013-04-17 05:48:00,
2013-04-16 23:53:00,21.0,18.0,30.07,NNE,28,4.6,4.6,88,0.00,CLR,,0.06,WeatherDisplay:10.37,2013-04-17 05:53:00,
2013-04-16 23:58:00,21.0,18.0,30.07,NNE,32,3.5,3.5,88,0.00,CLR,,0.06,WeatherDisplay:10.37,2013-04-17 05:58:00,